createdAt,value
2018-07-27T00:01:07.685Z,10.57
2018-07-27T00:03:36.686Z,9.80
2018-07-27T00:06:05.687Z,9.97
2018-07-27T00:08:34.686Z,10.63
2018-07-27T00:11:03.662Z,10.53
2018-07-27T00:13:32.670Z,9.23
2018-07-27T00:16:01.638Z,9.17
2018-07-27T00:18:30.622Z,9.50
2018-07-27T00:20:59.601Z,8.43
2018-07-27T00:23:28.578Z,8.50
2018-07-27T00:25:57.525Z,8.80
2018-07-27T00:28:26.519Z,9.63
2018-07-27T00:30:55.504Z,9.40
2018-07-27T00:33:24.534Z,9.03
2018-07-27T00:35:53.547Z,10.47
2018-07-27T00:38:22.511Z,11.53
2018-07-27T00:40:51.512Z,10.60
2018-07-27T00:43:20.751Z,12.20
2018-07-27T00:45:50.030Z,11.87
2018-07-27T00:48:18.975Z,12.43
2018-07-27T00:50:47.994Z,11.57
2018-07-27T00:53:16.967Z,13.87
2018-07-27T00:55:45.911Z,12.37
2018-07-27T00:58:14.879Z,11.70
2018-07-27T01:00:43.907Z,16.30
2018-07-27T01:03:12.911Z,12.03
2018-07-27T01:05:41.976Z,15.17
2018-07-27T01:08:10.940Z,12.63
2018-07-27T01:10:39.891Z,12.10
2018-07-27T01:13:08.862Z,10.17
2018-07-27T01:15:37.809Z,11.47
2018-07-27T01:18:07.104Z,11.53
2018-07-27T01:20:36.071Z,15.40
2018-07-27T01:23:05.272Z,11.20
2018-07-27T01:25:34.286Z,12.13
2018-07-27T01:28:03.276Z,13.33
2018-07-27T01:30:32.247Z,12.63
2018-07-27T01:33:01.263Z,15.00
2018-07-27T01:35:30.233Z,13.10
2018-07-27T01:37:59.167Z,13.03
2018-07-27T01:40:28.119Z,13.73
2018-07-27T01:42:57.080Z,12.67
2018-07-27T01:45:26.055Z,14.13
2018-07-27T01:47:55.055Z,13.97
2018-07-27T01:50:24.058Z,11.67
2018-07-27T01:52:53.031Z,11.57
2018-07-27T01:55:21.825Z,19.73
2018-07-27T01:57:50.695Z,17.50
2018-07-27T02:00:19.697Z,14.23
2018-07-27T02:02:48.675Z,13.97
2018-07-27T02:05:17.622Z,13.40
2018-07-27T02:07:46.632Z,11.60
2018-07-27T02:10:15.620Z,12.80
2018-07-27T02:12:44.651Z,12.53
2018-07-27T02:15:13.657Z,14.73
2018-07-27T02:17:42.611Z,10.00
2018-07-27T02:20:11.620Z,11.13
2018-07-27T02:22:40.578Z,11.97
2018-07-27T02:25:09.557Z,10.47
2018-07-27T02:27:38.543Z,13.53
2018-07-27T02:30:07.489Z,12.50
2018-07-27T02:32:36.466Z,14.43
2018-07-27T02:35:06.035Z,25.87
2018-07-27T02:37:35.004Z,18.10
2018-07-27T02:40:04.539Z,17.13
2018-07-27T02:42:33.463Z,15.73
2018-07-27T02:45:02.419Z,11.50
2018-07-27T02:47:31.421Z,17.53
2018-07-27T02:50:00.414Z,18.10
2018-07-27T02:52:29.435Z,23.53
2018-07-27T02:54:58.423Z,18.70
2018-07-27T02:57:27.448Z,17.67
2018-07-27T02:59:56.559Z,20.40
2018-07-27T03:02:25.603Z,12.70
2018-07-27T03:04:54.604Z,13.17
2018-07-27T03:07:23.572Z,16.20
2018-07-27T03:09:52.579Z,16.27
2018-07-27T03:12:21.537Z,12.83
2018-07-27T03:14:50.520Z,13.23
2018-07-27T03:17:19.496Z,19.90
2018-07-27T03:19:48.487Z,21.10
2018-07-27T03:22:17.480Z,14.23
2018-07-27T03:24:46.478Z,16.00
2018-07-27T03:27:15.450Z,13.87
2018-07-27T03:29:44.423Z,11.60
2018-07-27T03:32:20.005Z,14.73
2018-07-27T03:34:48.983Z,12.17
2018-07-27T03:37:17.970Z,14.80
2018-07-27T03:39:46.935Z,18.53
2018-07-27T03:42:22.955Z,15.00
2018-07-27T03:44:51.945Z,17.47
2018-07-27T03:47:20.954Z,14.07
2018-07-27T03:49:50.212Z,14.43
2018-07-27T03:52:19.311Z,11.23
2018-07-27T03:54:48.292Z,12.53
2018-07-27T03:57:17.280Z,11.90
2018-07-27T03:59:46.240Z,15.27
2018-07-27T04:04:50.886Z,12.43
2018-07-27T04:07:19.997Z,13.70
2018-07-27T04:09:48.942Z,16.33
2018-07-27T04:12:17.890Z,18.77
2018-07-27T04:14:46.855Z,16.03
2018-07-27T04:17:15.811Z,17.73
2018-07-27T04:19:44.802Z,15.10
2018-07-27T04:22:13.769Z,12.83
2018-07-27T04:24:42.730Z,15.37
2018-07-27T04:27:11.736Z,13.33
2018-07-27T04:29:41.613Z,13.50
2018-07-27T04:32:10.607Z,15.97
2018-07-27T04:34:39.642Z,18.90
2018-07-27T04:37:08.911Z,22.63
2018-07-27T04:39:37.876Z,17.33
2018-07-27T04:42:06.860Z,17.27
2018-07-27T04:44:35.808Z,18.80
2018-07-27T04:47:04.767Z,17.87
2018-07-27T04:49:33.732Z,22.87
2018-07-27T04:52:02.697Z,14.80
2018-07-27T04:54:31.679Z,13.73
2018-07-27T04:57:00.651Z,19.30
2018-07-27T04:59:29.664Z,21.10
2018-07-27T05:01:58.658Z,21.53
2018-07-27T05:04:27.870Z,23.17
2018-07-27T05:06:56.846Z,27.03
2018-07-27T05:09:25.875Z,18.53
2018-07-27T05:11:54.985Z,23.47
2018-07-27T05:14:24.043Z,15.27
2018-07-27T05:16:53.104Z,16.90
2018-07-27T05:19:22.090Z,13.43
2018-07-27T05:21:51.036Z,22.43
2018-07-27T05:24:19.987Z,14.77
2018-07-27T05:26:48.968Z,16.47
2018-07-27T05:29:17.976Z,19.83
2018-07-27T05:31:46.963Z,23.00
2018-07-27T05:34:15.934Z,20.67
2018-07-27T05:36:44.951Z,18.03
2018-07-27T05:39:13.935Z,16.17
2018-07-27T05:41:42.911Z,21.00
2018-07-27T05:44:11.899Z,15.47
2018-07-27T05:46:40.858Z,17.43
2018-07-27T05:49:09.877Z,12.43
2018-07-27T05:51:38.892Z,15.93
2018-07-27T05:54:07.847Z,21.70
2018-07-27T05:56:36.862Z,15.00
2018-07-27T05:59:06.037Z,14.20
2018-07-27T06:01:35.008Z,16.13
2018-07-27T06:04:04.031Z,17.37
2018-07-27T06:06:33.005Z,14.30
2018-07-27T06:09:01.971Z,12.53
2018-07-27T06:11:30.939Z,14.10
2018-07-27T06:13:59.875Z,15.07
2018-07-27T06:16:28.858Z,17.30
2018-07-27T06:18:57.823Z,14.03
2018-07-27T06:21:26.783Z,16.07
2018-07-27T06:23:55.876Z,12.53
2018-07-27T06:26:24.747Z,15.40
2018-07-27T06:28:53.513Z,16.63
2018-07-27T06:31:22.367Z,13.20
2018-07-27T06:33:51.315Z,11.40
2018-07-27T06:36:20.312Z,16.33
2018-07-27T06:38:49.303Z,10.83
2018-07-27T06:41:18.288Z,10.63
2018-07-27T06:43:47.295Z,12.17
2018-07-27T06:46:16.255Z,11.87
2018-07-27T06:48:45.252Z,11.40
2018-07-27T06:51:14.317Z,16.20
2018-07-27T06:53:43.420Z,19.27
2018-07-27T06:56:12.368Z,14.63
2018-07-27T06:58:41.331Z,14.40
2018-07-27T07:01:10.339Z,12.87
2018-07-27T07:03:39.275Z,17.53
2018-07-27T07:06:08.280Z,19.53
2018-07-27T07:08:37.309Z,14.47
2018-07-27T07:11:06.276Z,10.53
2018-07-27T07:13:35.264Z,11.43
2018-07-27T07:16:04.304Z,11.00
2018-07-27T07:18:33.312Z,10.47
2018-07-27T07:21:02.296Z,9.10
2018-07-27T07:23:31.254Z,12.50
2018-07-27T07:26:00.440Z,10.40
2018-07-27T07:28:29.191Z,11.37
2018-07-27T07:30:58.171Z,10.63
2018-07-27T07:33:27.205Z,11.60
2018-07-27T07:35:56.306Z,15.80
2018-07-27T07:38:25.395Z,11.70
2018-07-27T07:40:54.369Z,13.30
2018-07-27T07:43:23.371Z,13.07
2018-07-27T07:45:52.354Z,13.23
2018-07-27T07:48:21.319Z,12.17
2018-07-27T07:50:50.315Z,12.40
2018-07-27T07:53:19.300Z,11.47
2018-07-27T07:55:48.266Z,13.40
2018-07-27T07:58:17.197Z,11.07
2018-07-27T08:00:46.555Z,13.30
2018-07-27T08:03:15.540Z,11.87
2018-07-27T08:05:44.520Z,13.90
2018-07-27T08:08:13.508Z,11.90
2018-07-27T08:10:42.478Z,15.33
2018-07-27T08:13:11.530Z,16.50
2018-07-27T08:15:40.634Z,12.77
2018-07-27T08:18:09.795Z,15.00
2018-07-27T08:20:38.767Z,12.50
2018-07-27T08:23:07.771Z,14.20
2018-07-27T08:27:07.303Z,13.10
2018-07-27T08:29:37.650Z,19.47
2018-07-27T08:32:06.866Z,15.37
2018-07-27T08:34:35.887Z,16.40
2018-07-27T08:37:04.873Z,18.90
2018-07-27T08:39:38.208Z,13.43
2018-07-27T08:42:07.868Z,10.97
2018-07-27T08:44:38.303Z,15.10
2018-07-27T08:47:07.725Z,20.70
2018-07-27T08:49:36.655Z,16.50
2018-07-27T08:52:05.671Z,11.27
2018-07-27T08:54:34.639Z,14.70
2018-07-27T08:57:03.600Z,15.03
2018-07-27T08:59:32.555Z,12.80
2018-07-27T09:02:01.550Z,13.73
2018-07-27T09:04:30.547Z,14.70
2018-07-27T09:06:59.603Z,16.03
2018-07-27T09:09:28.516Z,12.60
2018-07-27T09:11:57.354Z,15.20
2018-07-27T09:14:26.379Z,12.33
2018-07-27T09:17:01.295Z,16.33
2018-07-27T09:19:36.541Z,18.70
2018-07-27T09:22:11.371Z,17.10
2018-07-27T09:24:40.480Z,30.00
2018-07-27T09:27:09.299Z,17.20
2018-07-27T09:29:38.294Z,17.67
2018-07-27T09:32:07.262Z,19.00
2018-07-27T09:34:36.289Z,19.63
2018-07-27T09:37:05.427Z,16.80
2018-07-27T09:39:34.434Z,18.00
2018-07-27T09:42:03.404Z,16.77
2018-07-27T09:44:32.419Z,15.17
2018-07-27T09:47:01.399Z,16.57
2018-07-27T09:49:30.371Z,13.40
2018-07-27T09:51:59.385Z,17.87
2018-07-27T09:54:28.367Z,14.40
2018-07-27T09:56:57.323Z,15.27
2018-07-27T09:59:26.372Z,15.80
2018-07-27T10:01:55.403Z,13.67
2018-07-27T10:04:24.395Z,12.60
2018-07-27T10:06:53.471Z,14.77
2018-07-27T10:09:22.485Z,14.30
2018-07-27T10:11:51.582Z,14.43
2018-07-27T10:14:20.531Z,15.53
2018-07-27T10:16:49.559Z,15.87
2018-07-27T10:19:18.495Z,13.83
2018-07-27T10:21:47.453Z,16.87
2018-07-27T10:24:16.512Z,15.10
2018-07-27T10:26:45.547Z,14.57
2018-07-27T10:29:14.502Z,14.87
2018-07-27T10:31:43.420Z,13.97
2018-07-27T10:34:12.264Z,16.53
2018-07-27T10:36:41.256Z,13.47
2018-07-27T10:39:11.508Z,16.50
2018-07-27T10:41:40.745Z,15.60
2018-07-27T10:44:09.747Z,15.23
2018-07-27T10:46:38.682Z,14.97
2018-07-27T10:49:07.658Z,14.87
2018-07-27T10:51:36.629Z,17.30
2018-07-27T10:54:05.835Z,14.57
2018-07-27T10:56:34.816Z,15.33
2018-07-27T10:59:03.803Z,13.47
2018-07-27T11:01:32.764Z,14.30
2018-07-27T11:04:01.965Z,13.00
2018-07-27T11:06:30.978Z,14.90
2018-07-27T11:09:00.375Z,14.83
2018-07-27T11:11:29.363Z,12.37
2018-07-27T11:13:58.719Z,14.50
2018-07-27T11:16:27.687Z,16.73
2018-07-27T11:18:56.680Z,14.57
2018-07-27T11:21:25.908Z,14.23
2018-07-27T11:23:54.911Z,14.77
2018-07-27T11:26:23.920Z,16.00
2018-07-27T11:28:52.878Z,17.13
2018-07-27T11:31:21.859Z,19.13
2018-07-27T11:33:50.854Z,18.67
2018-07-27T11:36:19.837Z,14.90
2018-07-27T11:38:48.830Z,14.40
2018-07-27T11:41:17.800Z,17.50
2018-07-27T11:43:46.779Z,16.97
2018-07-27T11:46:15.789Z,16.10
2018-07-27T11:48:44.751Z,14.47
2018-07-27T11:51:13.727Z,15.07
2018-07-27T11:53:42.517Z,14.53
2018-07-27T11:56:11.360Z,15.20
2018-07-27T11:58:40.318Z,22.57
2018-07-27T12:01:09.331Z,15.20
2018-07-27T12:03:38.678Z,16.77
2018-07-27T12:06:07.649Z,17.43
2018-07-27T12:08:36.687Z,20.17
2018-07-27T12:11:05.683Z,22.03
2018-07-27T12:13:34.765Z,20.00
2018-07-27T12:16:03.729Z,14.77
2018-07-27T12:18:32.765Z,17.17
2018-07-27T12:21:01.839Z,18.90
2018-07-27T12:23:30.478Z,18.37
2018-07-27T12:25:59.463Z,20.73
2018-07-27T12:28:28.434Z,22.97
2018-07-27T12:30:57.423Z,18.47
2018-07-27T12:33:26.402Z,14.30
2018-07-27T12:35:55.539Z,12.67
2018-07-27T12:38:24.563Z,16.27
2018-07-27T12:40:53.540Z,16.00
2018-07-27T12:43:22.542Z,16.33
2018-07-27T12:45:51.515Z,16.30
2018-07-27T12:48:20.561Z,14.70
2018-07-27T12:50:49.899Z,19.67
2018-07-27T12:53:18.852Z,15.53
2018-07-27T12:55:47.787Z,15.37
2018-07-27T12:58:16.779Z,22.33
2018-07-27T13:00:45.751Z,21.53
2018-07-27T13:03:14.811Z,15.47
2018-07-27T13:05:43.780Z,20.50
2018-07-27T13:08:12.785Z,16.27
2018-07-27T13:10:41.829Z,17.10
2018-07-27T13:13:10.623Z,19.37
2018-07-27T13:15:39.691Z,16.87
2018-07-27T13:18:08.643Z,12.93
2018-07-27T13:20:50.607Z,16.40
2018-07-27T13:23:20.701Z,20.33
2018-07-27T13:28:37.167Z,15.70
2018-07-27T13:31:06.528Z,13.20
2018-07-27T13:33:35.504Z,13.90
2018-07-27T13:36:04.631Z,12.23
2018-07-27T13:38:33.709Z,18.57
2018-07-27T13:41:02.640Z,13.23
2018-07-27T13:43:31.631Z,19.23
2018-07-27T13:46:00.603Z,12.90
2018-07-27T13:48:29.652Z,13.70
2018-07-27T13:50:58.636Z,12.10
2018-07-27T13:53:27.579Z,12.80
2018-07-27T13:55:56.336Z,19.43
2018-07-27T13:58:25.187Z,15.73
2018-07-27T14:00:54.138Z,15.60
2018-07-27T14:03:23.123Z,18.60
2018-07-27T14:05:52.106Z,21.17
2018-07-27T14:08:21.095Z,14.67
2018-07-27T14:10:51.210Z,16.30
2018-07-27T14:13:20.387Z,20.13
2018-07-27T14:15:49.344Z,23.03
2018-07-27T14:18:18.323Z,19.03
2018-07-27T14:20:47.307Z,15.33
2018-07-27T14:23:16.484Z,20.73
2018-07-27T14:25:45.443Z,16.07
2018-07-27T14:28:14.405Z,18.97
2018-07-27T14:30:43.404Z,13.67
2018-07-27T14:33:12.359Z,14.67
2018-07-27T14:35:41.323Z,16.30
2018-07-27T14:38:10.329Z,15.00
2018-07-27T14:40:39.305Z,14.77
2018-07-27T14:43:08.287Z,15.13
2018-07-27T14:45:37.275Z,15.73
2018-07-27T14:48:06.238Z,20.80
2018-07-27T14:50:35.205Z,17.87
2018-07-27T14:53:04.168Z,15.80
2018-07-27T14:55:33.127Z,19.20
2018-07-27T14:58:02.125Z,21.70
2018-07-27T15:00:31.165Z,22.13
2018-07-27T15:03:00.389Z,20.20
2018-07-27T15:05:29.385Z,18.13
2018-07-27T15:07:58.344Z,14.93
2018-07-27T15:10:27.468Z,20.10
2018-07-27T15:12:56.514Z,19.77
2018-07-27T15:15:25.518Z,20.60
2018-07-27T15:17:54.480Z,26.77
2018-07-27T15:20:23.495Z,18.10
2018-07-27T15:22:52.451Z,16.60
2018-07-27T15:25:21.454Z,20.07
2018-07-27T15:27:50.418Z,22.10
2018-07-27T15:30:19.471Z,24.23
2018-07-27T15:32:48.423Z,22.40
2018-07-27T15:35:17.475Z,22.20
2018-07-27T15:37:46.434Z,21.60
2018-07-27T15:40:15.611Z,20.60
2018-07-27T15:42:44.597Z,23.93
2018-07-27T15:45:13.599Z,18.50
2018-07-27T15:47:42.630Z,20.37
2018-07-27T15:50:11.604Z,21.80
2018-07-27T15:52:40.780Z,21.10
2018-07-27T15:55:09.518Z,24.57
2018-07-27T15:57:38.374Z,15.50
2018-07-27T16:00:08.304Z,18.10
2018-07-27T16:02:37.321Z,24.33
2018-07-27T16:05:06.696Z,18.00
2018-07-27T16:07:35.654Z,19.00
2018-07-27T16:10:05.124Z,17.47
2018-07-27T16:12:34.271Z,16.70
2018-07-27T16:17:42.045Z,16.27
2018-07-27T16:20:10.987Z,14.10
2018-07-27T16:22:40.059Z,19.07
2018-07-27T16:25:09.753Z,20.40
2018-07-27T16:27:38.659Z,17.20
2018-07-27T16:30:07.733Z,17.43
2018-07-27T16:32:36.742Z,18.60
2018-07-27T16:35:05.718Z,20.63
2018-07-27T16:37:34.720Z,17.80
2018-07-27T16:40:03.833Z,19.20
2018-07-27T16:42:32.763Z,13.43
2018-07-27T16:45:01.719Z,17.13
2018-07-27T16:47:30.667Z,14.30
2018-07-27T16:49:59.803Z,18.33
2018-07-27T16:52:28.795Z,16.70
2018-07-27T16:54:57.836Z,17.87
2018-07-27T16:57:26.818Z,23.07
2018-07-27T16:59:55.827Z,17.50
2018-07-27T17:02:24.831Z,14.20
2018-07-27T17:04:53.838Z,15.60
2018-07-27T17:07:23.353Z,13.90
2018-07-27T17:09:53.023Z,17.30
2018-07-27T17:12:22.024Z,14.10
2018-07-27T17:14:50.969Z,15.53
2018-07-27T17:17:19.956Z,15.33
2018-07-27T17:19:48.915Z,14.27
2018-07-27T17:22:17.943Z,13.33
2018-07-27T17:24:46.914Z,12.47
2018-07-27T17:27:15.918Z,14.93
2018-07-27T17:29:44.905Z,12.93
2018-07-27T17:32:13.882Z,13.63
2018-07-27T17:34:42.874Z,13.87
2018-07-27T17:37:11.838Z,16.50
2018-07-27T17:39:40.846Z,13.87
2018-07-27T17:42:09.835Z,15.47
2018-07-27T17:44:39.692Z,15.77
2018-07-27T17:47:08.656Z,13.90
2018-07-27T17:49:37.610Z,18.30
2018-07-27T17:52:06.930Z,13.30
2018-07-27T17:54:35.774Z,12.80
2018-07-27T17:57:05.588Z,13.97
2018-07-27T17:59:34.618Z,15.17
2018-07-27T18:02:03.602Z,15.87
2018-07-27T18:04:32.664Z,18.50
2018-07-27T18:07:01.848Z,15.20
2018-07-27T18:09:30.854Z,11.57
2018-07-27T18:12:00.214Z,13.73
2018-07-27T18:14:30.759Z,10.93
2018-07-27T18:16:59.752Z,14.30
2018-07-27T18:19:28.779Z,14.30
2018-07-27T18:21:57.739Z,14.63
2018-07-27T18:24:26.767Z,15.60
2018-07-27T18:26:55.709Z,16.80
2018-07-27T18:29:25.518Z,13.50
2018-07-27T18:31:54.512Z,15.57
2018-07-27T18:34:23.500Z,13.30
2018-07-27T18:36:52.623Z,13.43
2018-07-27T18:39:21.578Z,14.60
2018-07-27T18:41:51.226Z,16.00
2018-07-27T18:44:20.554Z,13.23
2018-07-27T18:46:49.599Z,17.20
2018-07-27T18:49:18.656Z,14.53
2018-07-27T18:51:47.635Z,16.33
2018-07-27T18:54:16.707Z,16.40
2018-07-27T18:56:45.671Z,15.67
2018-07-27T18:59:14.415Z,13.97
2018-07-27T19:01:43.594Z,13.30
2018-07-27T19:04:13.400Z,14.67
2018-07-27T19:06:42.723Z,13.20
2018-07-27T19:09:13.190Z,14.33
2018-07-27T19:11:42.679Z,14.57
2018-07-27T19:14:11.657Z,14.00
2018-07-27T19:16:40.673Z,14.67
2018-07-27T19:19:10.074Z,13.83
2018-07-27T19:21:39.362Z,12.87
2018-07-27T19:24:08.531Z,17.40
2018-07-27T19:26:37.698Z,14.07
2018-07-27T19:29:06.680Z,14.50
2018-07-27T19:31:35.720Z,17.93
2018-07-27T19:34:04.706Z,16.93
2018-07-27T19:36:33.519Z,11.80
2018-07-27T19:39:02.379Z,14.03
2018-07-27T19:41:31.734Z,15.33
2018-07-27T19:44:00.752Z,18.93
2018-07-27T19:46:29.725Z,13.53
2018-07-27T19:48:58.729Z,14.87
2018-07-27T19:51:27.682Z,13.83
2018-07-27T19:53:56.731Z,13.70
2018-07-27T19:56:25.724Z,15.47
2018-07-27T19:58:54.698Z,12.57
2018-07-27T20:01:23.699Z,14.00
2018-07-27T20:03:53.661Z,13.23
2018-07-27T20:06:22.667Z,14.37
2018-07-27T20:08:51.675Z,14.90
2018-07-27T20:11:21.279Z,14.77
2018-07-27T20:13:50.134Z,12.30
2018-07-27T20:16:20.099Z,13.87
2018-07-27T20:18:49.416Z,13.90
2018-07-27T20:21:18.428Z,13.60
2018-07-27T20:23:48.470Z,15.03
2018-07-27T20:26:17.428Z,13.43
2018-07-27T20:28:46.407Z,13.80
2018-07-27T20:31:15.408Z,12.93
2018-07-27T20:33:44.474Z,11.30
2018-07-27T20:36:13.474Z,16.80
2018-07-27T20:38:42.502Z,12.53
2018-07-27T20:41:11.895Z,13.40
2018-07-27T20:43:40.887Z,14.43
2018-07-27T20:46:09.904Z,13.03
2018-07-27T20:48:38.927Z,14.93
2018-07-27T20:51:07.871Z,16.20
2018-07-27T20:53:36.866Z,14.53
2018-07-27T20:56:05.867Z,13.30
2018-07-27T20:58:34.805Z,15.90
2018-07-27T21:01:04.569Z,13.93
2018-07-27T21:03:33.535Z,14.30
2018-07-27T21:06:02.536Z,13.63
2018-07-27T21:08:31.625Z,12.10
2018-07-27T21:11:01.055Z,11.50
2018-07-27T21:13:30.036Z,13.80
2018-07-27T21:15:59.303Z,12.30
2018-07-27T21:18:28.282Z,12.60
2018-07-27T21:20:57.272Z,11.50
2018-07-27T21:23:26.333Z,12.00
2018-07-27T21:25:55.579Z,15.57
2018-07-27T21:28:25.083Z,13.40
2018-07-27T21:30:54.146Z,12.10
2018-07-27T21:33:23.154Z,13.10
2018-07-27T21:35:52.119Z,12.53
2018-07-27T21:38:21.426Z,12.27
2018-07-27T21:40:50.568Z,12.43
2018-07-27T21:43:19.633Z,13.70
2018-07-27T21:45:48.660Z,14.23
2018-07-27T21:48:17.620Z,11.97
2018-07-27T21:50:46.635Z,13.07
2018-07-27T21:53:15.643Z,11.63
2018-07-27T21:55:44.628Z,13.00
2018-07-27T21:58:13.622Z,16.73
2018-07-27T22:00:43.007Z,15.93
2018-07-27T22:03:12.064Z,15.20
2018-07-27T22:05:41.067Z,9.87
2018-07-27T22:08:10.048Z,10.80
2018-07-27T22:10:39.152Z,10.93
2018-07-27T22:13:08.519Z,10.30
2018-07-27T22:15:37.551Z,12.97
2018-07-27T22:18:06.594Z,11.60
2018-07-27T22:20:35.590Z,13.03
2018-07-27T22:23:04.554Z,15.63
2018-07-27T22:25:33.555Z,10.13
2018-07-27T22:28:02.518Z,10.97
2018-07-27T22:30:31.526Z,11.90
2018-07-27T22:33:00.485Z,12.07
2018-07-27T22:35:29.477Z,11.53
2018-07-27T22:37:58.452Z,9.23
2018-07-27T22:40:27.503Z,9.97
2018-07-27T22:42:56.451Z,11.40
2018-07-27T22:45:25.407Z,11.23
2018-07-27T22:47:54.406Z,10.23
2018-07-27T22:50:23.378Z,12.93
2018-07-27T22:52:52.408Z,9.77
2018-07-27T22:55:21.406Z,10.00
2018-07-27T22:57:50.403Z,9.40
2018-07-27T23:00:19.480Z,9.87
2018-07-27T23:02:48.479Z,10.63
2018-07-27T23:05:17.463Z,10.30
2018-07-27T23:07:46.467Z,10.90
2018-07-27T23:10:15.495Z,10.30
2018-07-27T23:12:44.428Z,12.70
2018-07-27T23:15:13.416Z,10.83
2018-07-27T23:17:42.437Z,10.90
2018-07-27T23:20:13.131Z,9.57
2018-07-27T23:22:42.894Z,9.07
2018-07-27T23:25:11.853Z,10.33
2018-07-27T23:27:40.879Z,10.57
2018-07-27T23:30:11.578Z,10.43
2018-07-27T23:32:40.755Z,10.50
2018-07-27T23:35:09.754Z,10.57
2018-07-27T23:37:38.975Z,9.83
2018-07-27T23:40:08.364Z,10.40
2018-07-27T23:42:37.447Z,11.63
2018-07-27T23:45:07.151Z,10.87
2018-07-27T23:47:36.110Z,7.60
2018-07-27T23:50:05.406Z,8.80
2018-07-27T23:52:34.388Z,11.17
2018-07-27T23:55:03.385Z,10.73
2018-07-27T23:57:32.379Z,9.10
